Time;durP1;ratioP1;P1;durP2;ratioP2;P2;SDS_P1;SDS_P2;PMS_P1;PMS_P2;Temp;Humidity;BMP_temperature;BMP_pressure;BME280_temperature;BME280_humidity;BME280_pressure;Samples;Min_cycle;Max_cycle;Signal;HPM_P1;HPM_P2
2023/10/22 00:01:18;;;;;;;67.00;61.53;;;13.70;99.90;;;;;;4956904;28;20047;-74
2023/10/22 00:03:45;;;;;;;67.20;62.05;;;13.70;99.90;;;;;;4956500;29;20035;-75
2023/10/22 00:06:11;;;;;;;69.18;63.83;;;13.70;99.90;;;;;;4957495;28;20110;-75
2023/10/22 00:08:37;;;;;;;64.90;59.30;;;13.70;99.90;;;;;;4962328;28;20031;-75
2023/10/22 00:11:03;;;;;;;64.45;59.55;;;13.80;99.90;;;;;;4969720;28;20480;-75
2023/10/22 00:13:30;;;;;;;61.30;56.47;;;13.80;99.90;;;;;;4957432;29;20026;-75
2023/10/22 00:15:56;;;;;;;62.28;57.38;;;13.80;99.90;;;;;;4956789;28;20074;-75
2023/10/22 00:18:23;;;;;;;61.03;56.38;;;13.80;99.90;;;;;;4957310;29;20027;-75
2023/10/22 00:20:49;;;;;;;62.95;57.63;;;13.80;99.90;;;;;;4956622;28;20058;-74
2023/10/22 00:23:15;;;;;;;60.65;55.65;;;13.80;99.90;;;;;;4957335;29;20032;-75
2023/10/22 00:25:42;;;;;;;59.88;55.33;;;13.80;99.90;;;;;;4957261;28;20102;-75
2023/10/22 00:28:08;;;;;;;64.00;59.58;;;13.80;99.90;;;;;;4957782;28;20488;-75
2023/10/22 00:30:36;;;;;;;61.05;56.10;;;13.80;99.90;;;;;;4955916;28;20043;-75
2023/10/22 00:33:02;;;;;;;60.47;55.65;;;13.70;99.90;;;;;;4957057;29;20389;-75
2023/10/22 00:35:28;;;;;;;61.50;56.60;;;13.80;99.90;;;;;;4959677;28;20219;-75
2023/10/22 00:37:54;;;;;;;68.35;63.13;;;13.70;99.90;;;;;;4976257;28;20045;-75
2023/10/22 00:40:20;;;;;;;75.57;69.80;;;13.80;99.90;;;;;;4973534;28;20031;-75
2023/10/22 00:42:46;;;;;;;73.75;68.30;;;13.80;99.90;;;;;;4955879;29;20046;-75
2023/10/22 00:45:12;;;;;;;82.13;76.43;;;13.70;99.90;;;;;;4956042;28;20035;-76
2023/10/22 00:47:39;;;;;;;72.03;67.22;;;13.70;99.90;;;;;;4955779;29;20047;-75
2023/10/22 00:50:06;;;;;;;68.97;63.28;;;13.80;99.90;;;;;;4955171;28;20047;-75
2023/10/22 00:52:32;;;;;;;69.97;64.45;;;13.90;99.90;;;;;;4957126;28;20058;-75
2023/10/22 00:54:58;;;;;;;73.53;68.57;;;13.90;99.90;;;;;;4923435;29;20043;-75
2023/10/22 00:57:25;;;;;;;71.60;66.35;;;13.90;99.90;;;;;;4955009;28;20046;-75
2023/10/22 00:59:52;;;;;;;71.82;66.60;;;13.90;99.90;;;;;;4954859;29;20479;-75
2023/10/22 01:02:22;;;;;;;70.53;64.43;;;13.90;99.90;;;;;;4938399;28;20058;-70
2023/10/22 01:04:48;;;;;;;73.47;68.18;;;13.90;99.90;;;;;;4955177;29;20056;-70
2023/10/22 01:07:14;;;;;;;68.63;63.15;;;13.90;99.90;;;;;;4956182;28;20043;-70
2023/10/22 01:09:40;;;;;;;74.47;69.05;;;13.80;99.90;;;;;;4955449;28;20035;-70
2023/10/22 01:12:07;;;;;;;75.95;70.35;;;13.80;99.90;;;;;;4956163;28;20043;-71
2023/10/22 01:14:33;;;;;;;78.18;72.18;;;13.80;99.90;;;;;;4956348;29;20031;-70
2023/10/22 01:16:59;;;;;;;81.97;75.82;;;13.80;99.90;;;;;;4955294;28;20070;-69
2023/10/22 01:19:25;;;;;;;88.78;82.57;;;13.70;99.90;;;;;;4955905;28;20039;-70
2023/10/22 01:21:51;;;;;;;76.88;71.57;;;13.70;99.90;;;;;;4956171;28;20050;-70
2023/10/22 01:24:17;;;;;;;84.18;77.93;;;13.60;99.90;;;;;;4956463;29;20027;-70
2023/10/22 01:26:44;;;;;;;88.93;82.88;;;13.60;99.90;;;;;;4955891;28;20405;-70
2023/10/22 01:29:13;;;;;;;88.00;81.78;;;13.60;99.90;;;;;;4956559;29;20031;-70
2023/10/22 01:31:40;;;;;;;88.47;82.63;;;13.60;99.90;;;;;;4954829;28;20039;-70
2023/10/22 01:34:06;;;;;;;100.90;93.95;;;13.60;99.90;;;;;;4956029;29;20031;-70
2023/10/22 01:36:32;;;;;;;99.97;93.05;;;13.50;99.90;;;;;;4967431;28;20046;-70
2023/10/22 01:38:58;;;;;;;109.35;102.25;;;13.50;99.90;;;;;;4975365;28;20031;-70
2023/10/22 01:41:25;;;;;;;108.22;100.93;;;13.50;99.90;;;;;;4964880;28;20035;-70
2023/10/22 01:43:52;;;;;;;105.68;98.03;;;13.50;99.90;;;;;;4956064;28;20392;-70
2023/10/22 01:46:19;;;;;;;112.72;105.07;;;13.50;99.90;;;;;;4954500;28;20043;-70
2023/10/22 01:48:46;;;;;;;105.53;98.97;;;13.50;99.90;;;;;;4955615;28;20047;-70
2023/10/22 01:51:13;;;;;;;107.40;99.80;;;13.50;99.90;;;;;;4955427;28;20031;-70
2023/10/22 01:53:39;;;;;;;100.70;94.35;;;13.60;99.90;;;;;;4955468;28;20055;-70
2023/10/22 01:56:05;;;;;;;98.25;91.57;;;13.50;99.90;;;;;;4955167;28;20046;-70
2023/10/22 01:58:31;;;;;;;94.05;87.40;;;13.50;99.90;;;;;;4955609;29;20472;-70
2023/10/22 02:01:02;;;;;;;101.78;94.88;;;13.50;99.90;;;;;;4954855;28;20108;-70
2023/10/22 02:03:28;;;;;;;107.95;100.97;;;13.50;99.90;;;;;;4955517;28;20052;-70
2023/10/22 02:05:55;;;;;;;95.88;89.38;;;13.50;99.90;;;;;;4954747;28;20393;-75
2023/10/22 02:08:21;;;;;;;55.78;51.45;;;13.60;99.90;;;;;;4940954;28;20046;-75
2023/10/22 02:10:47;;;;;;;56.50;52.28;;;13.50;99.90;;;;;;4972125;28;20038;-75
2023/10/22 02:13:14;;;;;;;67.30;62.03;;;13.50;99.90;;;;;;4957289;28;20034;-75
2023/10/22 02:15:40;;;;;;;60.95;56.35;;;13.60;99.90;;;;;;4971843;28;20376;-75
2023/10/22 02:18:06;;;;;;;54.58;49.72;;;13.50;99.90;;;;;;4974505;28;20496;-75
2023/10/22 02:20:33;;;;;;;51.50;47.60;;;13.40;99.90;;;;;;4969942;28;20034;-74
2023/10/22 02:23:00;;;;;;;58.78;53.97;;;13.40;99.90;;;;;;4953994;29;20038;-75
2023/10/22 02:25:27;;;;;;;62.22;57.00;;;13.30;99.90;;;;;;4954897;28;20038;-75
2023/10/22 02:27:53;;;;;;;60.30;55.38;;;13.30;99.90;;;;;;4937685;29;20361;-75
2023/10/22 02:30:19;;;;;;;60.45;55.03;;;13.20;99.90;;;;;;4953298;28;20047;-75
2023/10/22 02:32:45;;;;;;;53.47;48.45;;;13.20;99.90;;;;;;4954934;29;20043;-75
2023/10/22 02:35:12;;;;;;;58.08;53.60;;;13.10;99.90;;;;;;4955538;28;20031;-75
2023/10/22 02:37:38;;;;;;;69.53;64.18;;;13.10;99.90;;;;;;4974406;28;20035;-75
2023/10/22 02:40:05;;;;;;;62.83;57.83;;;13.10;99.90;;;;;;4972806;28;20050;-75
2023/10/22 02:42:32;;;;;;;97.68;91.45;;;13.10;99.90;;;;;;4954983;28;20412;-75
2023/10/22 02:44:58;;;;;;;62.70;57.88;;;13.00;99.90;;;;;;4954453;29;20409;-75
2023/10/22 02:47:24;;;;;;;67.25;61.83;;;13.00;99.90;;;;;;4953886;28;20050;-75
2023/10/22 02:49:53;;;;;;;68.93;63.15;;;13.10;99.90;;;;;;4954705;29;20035;-75
2023/10/22 02:52:19;;;;;;;75.65;69.47;;;13.10;99.90;;;;;;4952915;28;20051;-75
2023/10/22 02:54:45;;;;;;;81.50;75.90;;;13.10;99.90;;;;;;4954588;29;20123;-75
2023/10/22 02:57:11;;;;;;;83.53;76.97;;;13.10;99.90;;;;;;4952942;28;20038;-75
2023/10/22 02:59:37;;;;;;;89.78;83.20;;;13.10;99.90;;;;;;4954436;29;20039;-75
2023/10/22 03:02:03;;;;;;;102.75;95.90;;;13.20;99.90;;;;;;4952662;28;20047;-75
2023/10/22 03:04:29;;;;;;;102.72;95.45;;;13.20;99.90;;;;;;4954387;29;20047;-75
2023/10/22 03:06:55;;;;;;;101.38;94.95;;;13.30;99.90;;;;;;4954278;28;20477;-75
2023/10/22 03:09:22;;;;;;;107.07;99.97;;;13.30;99.90;;;;;;4964927;28;20043;-75
2023/10/22 03:11:48;;;;;;;101.45;94.85;;;13.30;99.90;;;;;;4960524;28;20050;-74
2023/10/22 03:14:19;;;;;;;100.13;93.05;;;13.30;99.90;;;;;;4954088;29;20024;-75
2023/10/22 03:16:47;;;;;;;89.28;83.38;;;13.30;99.90;;;;;;4952302;28;20062;-75
2023/10/22 03:19:13;;;;;;;92.55;86.03;;;13.30;99.90;;;;;;4921260;29;20051;-70
2023/10/22 03:21:40;;;;;;;87.57;81.88;;;13.30;99.90;;;;;;4953776;28;20415;-70
2023/10/22 03:24:08;;;;;;;84.53;78.82;;;13.40;99.90;;;;;;4954466;29;20031;-70
2023/10/22 03:26:35;;;;;;;81.18;76.20;;;13.40;99.90;;;;;;4953564;28;20051;-70
2023/10/22 03:29:02;;;;;;;70.88;65.38;;;13.30;99.90;;;;;;4954029;28;20047;-70
2023/10/22 03:31:28;;;;;;;75.55;69.65;;;13.30;99.90;;;;;;4953668;28;20492;-70
2023/10/22 03:33:54;;;;;;;71.25;66.13;;;13.30;99.90;;;;;;4954407;29;20031;-69
2023/10/22 03:36:20;;;;;;;73.55;68.25;;;13.30;99.90;;;;;;4963793;28;20047;-70
2023/10/22 03:38:47;;;;;;;74.47;68.85;;;13.20;99.90;;;;;;4973477;28;20448;-70
2023/10/22 03:41:14;;;;;;;76.25;70.95;;;13.20;99.90;;;;;;4964513;28;20050;-70
2023/10/22 03:43:40;;;;;;;72.63;67.25;;;13.10;99.90;;;;;;4953538;28;20047;-70
2023/10/22 03:46:06;;;;;;;72.07;67.18;;;13.10;99.90;;;;;;4953202;28;20409;-70
2023/10/22 03:48:32;;;;;;;76.25;70.75;;;13.10;99.90;;;;;;4954009;29;20039;-70
2023/10/22 03:50:58;;;;;;;69.47;64.30;;;13.10;99.90;;;;;;4953817;28;20038;-70
2023/10/22 03:53:25;;;;;;;68.68;63.33;;;13.10;99.90;;;;;;4953737;28;20039;-70
2023/10/22 03:55:51;;;;;;;66.00;61.47;;;13.10;99.90;;;;;;4954026;28;20065;-70
2023/10/22 03:58:17;;;;;;;67.05;62.53;;;13.10;99.90;;;;;;4953727;29;20027;-70
2023/10/22 04:00:43;;;;;;;73.30;67.90;;;13.10;99.90;;;;;;4953416;28;20036;-70
2023/10/22 04:03:09;;;;;;;74.93;69.22;;;13.10;99.90;;;;;;4953887;29;20392;-70
2023/10/22 04:05:35;;;;;;;78.40;72.00;;;13.10;99.90;;;;;;4953771;28;20028;-70
2023/10/22 04:08:01;;;;;;;69.90;65.13;;;13.10;99.90;;;;;;4953655;28;20043;-70
2023/10/22 04:10:27;;;;;;;72.35;67.18;;;13.10;99.90;;;;;;4953743;28;20513;-70
2023/10/22 04:12:53;;;;;;;75.35;70.25;;;13.10;99.90;;;;;;4953589;29;20027;-70
2023/10/22 04:15:20;;;;;;;78.93;72.85;;;13.10;99.90;;;;;;4953012;28;20031;-70
2023/10/22 04:17:46;;;;;;;75.45;70.20;;;13.10;99.90;;;;;;4953864;29;20035;-70
2023/10/22 04:20:12;;;;;;;74.43;68.65;;;13.00;99.90;;;;;;4953568;28;20039;-71
2023/10/22 04:22:41;;;;;;;75.70;70.18;;;13.00;99.90;;;;;;4953864;29;20031;-70
2023/10/22 04:25:07;;;;;;;72.45;67.45;;;13.00;99.90;;;;;;4952813;28;20043;-70
2023/10/22 04:27:33;;;;;;;71.25;66.55;;;12.90;99.90;;;;;;4951482;29;20408;-70
2023/10/22 04:30:00;;;;;;;75.85;70.63;;;12.90;99.90;;;;;;4953743;29;20040;-70
2023/10/22 04:32:26;;;;;;;78.63;73.15;;;12.90;99.90;;;;;;4952875;28;20428;-74
2023/10/22 04:34:52;;;;;;;78.70;72.88;;;12.80;99.90;;;;;;4956575;29;20384;-75
2023/10/22 04:37:19;;;;;;;78.88;72.93;;;12.90;99.90;;;;;;4974552;28;20043;-75
2023/10/22 04:39:45;;;;;;;87.47;80.68;;;12.90;99.90;;;;;;4976498;28;20042;-75
2023/10/22 04:42:11;;;;;;;85.35;79.75;;;12.90;99.90;;;;;;4974426;28;20050;-75
2023/10/22 04:44:40;;;;;;;77.70;72.25;;;12.80;99.90;;;;;;4955703;29;20038;-75
2023/10/22 04:47:06;;;;;;;58.05;53.40;;;12.80;99.90;;;;;;4954971;28;20051;-75
2023/10/22 04:49:32;;;;;;;85.50;79.78;;;12.80;99.90;;;;;;4956868;29;20039;-75
2023/10/22 04:51:58;;;;;;;99.20;92.30;;;12.80;99.90;;;;;;4956650;28;20044;-75
2023/10/22 04:54:25;;;;;;;48.50;44.17;;;12.70;99.90;;;;;;4956780;29;20038;-75
2023/10/22 04:56:51;;;;;;;49.00;44.83;;;12.70;99.90;;;;;;4956465;28;20047;-75
2023/10/22 04:59:17;;;;;;;44.25;40.22;;;12.70;99.90;;;;;;4956623;29;20039;-75
2023/10/22 05:01:43;;;;;;;48.70;44.33;;;12.70;99.90;;;;;;4956145;28;20050;-75
2023/10/22 05:04:09;;;;;;;55.10;50.42;;;12.70;99.90;;;;;;4956591;29;20035;-75
2023/10/22 05:06:35;;;;;;;47.10;43.90;;;12.70;99.90;;;;;;4956064;28;20477;-74
2023/10/22 05:09:01;;;;;;;46.70;42.25;;;12.70;99.90;;;;;;4964220;28;20038;-75
2023/10/22 05:11:27;;;;;;;44.33;40.72;;;12.70;99.90;;;;;;4964942;28;20039;-75
2023/10/22 05:13:53;;;;;;;45.38;41.95;;;12.70;99.90;;;;;;4956990;28;20039;-75
2023/10/22 05:16:19;;;;;;;55.55;51.03;;;12.60;99.90;;;;;;4955474;28;20081;-74
2023/10/22 05:18:46;;;;;;;50.45;45.75;;;12.60;99.90;;;;;;4955286;29;20027;-75
2023/10/22 05:21:12;;;;;;;49.95;45.55;;;12.60;99.90;;;;;;4956040;28;20062;-75
2023/10/22 05:23:38;;;;;;;44.75;40.83;;;12.60;99.90;;;;;;4956065;29;20047;-75
2023/10/22 05:26:04;;;;;;;44.42;40.90;;;12.50;99.90;;;;;;4938809;29;20047;-75
2023/10/22 05:28:30;;;;;;;44.85;41.10;;;12.50;99.90;;;;;;4956194;28;20055;-75
2023/10/22 05:30:56;;;;;;;100.88;94.50;;;12.50;99.90;;;;;;4955303;28;20050;-75
2023/10/22 05:33:22;;;;;;;133.75;125.85;;;12.50;99.90;;;;;;4956181;29;20032;-75
2023/10/22 05:35:48;;;;;;;139.95;131.15;;;12.40;99.90;;;;;;4960459;28;20042;-74
2023/10/22 05:38:14;;;;;;;149.82;140.95;;;12.40;99.90;;;;;;4973869;28;20061;-75
2023/10/22 05:40:41;;;;;;;121.03;113.85;;;12.40;99.90;;;;;;4970533;28;20038;-75
2023/10/22 05:43:07;;;;;;;82.53;76.95;;;12.30;99.90;;;;;;4956010;29;20027;-75
2023/10/22 05:45:33;;;;;;;66.75;62.05;;;12.30;99.90;;;;;;4954863;28;20042;-75
2023/10/22 05:47:59;;;;;;;90.47;84.03;;;12.30;99.90;;;;;;4955709;29;20047;-75
2023/10/22 05:50:26;;;;;;;91.43;85.40;;;12.30;99.90;;;;;;4954457;28;20038;-75
2023/10/22 05:52:52;;;;;;;110.40;103.47;;;12.20;99.90;;;;;;4954496;29;20058;-75
2023/10/22 05:55:18;;;;;;;89.18;83.43;;;12.20;99.90;;;;;;4955936;28;20416;-70
2023/10/22 05:57:45;;;;;;;74.25;68.32;;;12.10;99.90;;;;;;4955507;28;20039;-69
2023/10/22 06:00:14;;;;;;;64.88;60.10;;;12.10;99.90;;;;;;4955133;28;20384;-70
2023/10/22 06:02:40;;;;;;;130.27;122.40;;;12.20;99.90;;;;;;4955506;28;20392;-70
2023/10/22 06:05:12;;;;;;;160.40;150.63;;;12.20;99.90;;;;;;4955612;29;20461;-70
2023/10/22 06:07:38;;;;;;;153.30;144.40;;;12.10;99.90;;;;;;4954646;28;20062;-70
2023/10/22 06:10:05;;;;;;;155.75;146.45;;;12.20;99.90;;;;;;4955382;28;20047;-70
2023/10/22 06:12:31;;;;;;;134.57;126.57;;;12.10;99.90;;;;;;4955347;28;20035;-70
2023/10/22 06:15:03;;;;;;;66.55;61.90;;;12.00;99.90;;;;;;4955821;29;20038;-70
2023/10/22 06:17:32;;;;;;;59.85;55.45;;;11.90;99.90;;;;;;4968744;28;20058;-71
2023/10/22 06:19:58;;;;;;;53.72;49.40;;;12.00;99.90;;;;;;4974728;28;20050;-70
2023/10/22 06:22:24;;;;;;;67.00;62.03;;;11.90;99.90;;;;;;4955904;28;20096;-69
2023/10/22 06:24:50;;;;;;;88.32;82.78;;;11.90;99.90;;;;;;4955390;29;20036;-71
2023/10/22 06:27:16;;;;;;;63.03;58.75;;;11.90;99.90;;;;;;4954621;28;20043;-71
2023/10/22 06:29:47;;;;;;;74.35;69.15;;;11.90;99.90;;;;;;4955232;29;20039;-70
2023/10/22 06:32:13;;;;;;;94.68;88.90;;;12.00;99.90;;;;;;4954488;28;20039;-71
2023/10/22 06:34:39;;;;;;;96.85;90.28;;;12.00;99.90;;;;;;4955133;29;20031;-70
2023/10/22 06:37:05;;;;;;;71.35;65.78;;;12.00;99.90;;;;;;4970139;28;20042;-70
2023/10/22 06:39:31;;;;;;;66.60;61.90;;;12.00;99.90;;;;;;4974286;28;20038;-70
2023/10/22 06:41:59;;;;;;;86.10;80.43;;;12.00;99.90;;;;;;4959589;28;20389;-69
2023/10/22 06:44:25;;;;;;;91.05;85.38;;;12.00;99.90;;;;;;4954338;28;20409;-69
2023/10/22 06:46:51;;;;;;;86.85;81.00;;;12.00;99.90;;;;;;4954080;28;20043;-70
2023/10/22 06:49:17;;;;;;;56.42;52.00;;;12.00;99.90;;;;;;4954835;29;20035;-70
2023/10/22 06:51:43;;;;;;;65.15;60.55;;;12.00;99.90;;;;;;4954352;28;20042;-70
2023/10/22 06:54:10;;;;;;;78.25;72.75;;;11.90;99.90;;;;;;4954719;29;20031;-70
2023/10/22 06:56:36;;;;;;;66.57;61.22;;;11.90;99.90;;;;;;4965126;28;20031;-70
2023/10/22 06:59:03;;;;;;;69.93;64.88;;;11.80;99.90;;;;;;4973995;28;20030;-70
2023/10/22 07:01:29;;;;;;;76.53;71.18;;;11.80;99.90;;;;;;4962735;28;20050;-70
2023/10/22 07:03:56;;;;;;;93.43;87.18;;;11.90;99.90;;;;;;4954521;29;20031;-70
2023/10/22 07:06:22;;;;;;;83.65;78.07;;;11.80;99.90;;;;;;4954054;28;20028;-70
2023/10/22 07:08:48;;;;;;;95.47;89.53;;;11.90;99.90;;;;;;4960345;28;20046;-75
2023/10/22 07:11:14;;;;;;;93.97;88.22;;;11.90;99.90;;;;;;4971960;28;20030;-75
2023/10/22 07:13:40;;;;;;;76.63;71.60;;;12.00;99.90;;;;;;4972776;28;20392;-75
2023/10/22 07:16:07;;;;;;;94.53;88.60;;;12.00;99.90;;;;;;4972530;28;20047;-75
2023/10/22 07:18:33;;;;;;;97.40;91.07;;;12.00;99.90;;;;;;4973582;28;20038;-74
2023/10/22 07:21:00;;;;;;;86.53;81.32;;;11.90;99.90;;;;;;4966588;28;20480;-75
2023/10/22 07:23:31;;;;;;;84.07;78.70;;;11.90;99.90;;;;;;4937331;29;20388;-75
2023/10/22 07:25:57;;;;;;;85.97;80.72;;;11.90;99.90;;;;;;4952890;28;20023;-75
2023/10/22 07:28:23;;;;;;;55.95;52.08;;;11.80;99.90;;;;;;4953285;28;20040;-75
2023/10/22 07:30:49;;;;;;;55.53;51.60;;;11.80;99.90;;;;;;4952341;28;20028;-75
2023/10/22 07:33:16;;;;;;;108.35;101.88;;;12.00;99.90;;;;;;4954288;29;20031;-74
2023/10/22 07:35:52;;;;;;;68.88;64.30;;;12.30;99.90;;;;;;4958500;28;20038;-75
2023/10/22 07:38:18;;;;;;;86.90;81.25;;;12.40;99.90;;;;;;4972375;28;20042;-75
2023/10/22 07:40:44;;;;;;;76.10;71.20;;;12.50;99.90;;;;;;4968442;28;20384;-74
2023/10/22 07:43:10;;;;;;;68.72;64.15;;;12.60;99.90;;;;;;4954236;29;20046;-74
2023/10/22 07:45:39;;;;;;;97.15;91.18;;;12.70;99.90;;;;;;4952219;28;20035;-75
2023/10/22 07:48:05;;;;;;;59.78;55.88;;;12.60;99.90;;;;;;4954017;29;20484;-75
2023/10/22 07:50:31;;;;;;;59.80;55.20;;;12.70;99.90;;;;;;4952389;28;20027;-75
2023/10/22 07:52:58;;;;;;;50.28;46.85;;;12.90;99.90;;;;;;4954130;29;20027;-74
2023/10/22 07:55:24;;;;;;;51.97;48.28;;;13.00;99.90;;;;;;4953659;28;20042;-75
2023/10/22 07:57:50;;;;;;;59.50;55.30;;;13.10;99.90;;;;;;4953731;29;20039;-74
2023/10/22 08:00:16;;;;;;;57.97;53.63;;;13.20;99.90;;;;;;4953791;28;20039;-75
2023/10/22 08:02:42;;;;;;;61.95;57.45;;;13.20;99.90;;;;;;4953962;28;20031;-75
2023/10/22 08:05:09;;;;;;;76.45;71.85;;;13.40;99.90;;;;;;4953516;29;20051;-74
2023/10/22 08:07:35;;;;;;;86.32;80.72;;;13.50;99.90;;;;;;4972915;28;20046;-75
2023/10/22 08:10:01;;;;;;;55.55;52.05;;;13.50;99.90;;;;;;4976572;28;20050;-70
2023/10/22 08:12:28;;;;;;;55.00;50.90;;;13.60;99.90;;;;;;4976709;28;20058;-70
2023/10/22 08:14:54;;;;;;;72.20;67.82;;;13.70;99.90;;;;;;4976678;28;20479;-70
2023/10/22 08:17:20;;;;;;;95.68;89.65;;;13.80;99.90;;;;;;4958751;28;20059;-70
2023/10/22 08:19:46;;;;;;;108.30;101.93;;;13.80;99.90;;;;;;4956936;28;20401;-69
2023/10/22 08:22:12;;;;;;;106.35;100.10;;;13.90;99.90;;;;;;4957041;28;20035;-70
2023/10/22 08:24:41;;;;;;;73.93;69.15;;;14.00;99.90;;;;;;4957270;28;20039;-70
2023/10/22 08:27:07;;;;;;;97.47;91.85;;;14.10;99.90;;;;;;4956931;28;20072;-69
2023/10/22 08:29:37;;;;;;;92.47;86.80;;;14.10;99.90;;;;;;4957264;29;20035;-70
2023/10/22 08:32:04;;;;;;;88.25;82.97;;;14.20;99.90;;;;;;4956341;28;20039;-69
2023/10/22 08:34:30;;;;;;;83.78;78.53;;;14.40;99.90;;;;;;4957204;29;20039;-70
2023/10/22 08:36:56;;;;;;;74.88;70.18;;;14.40;99.90;;;;;;4970475;28;20047;-70
2023/10/22 08:39:25;;;;;;;83.40;78.55;;;14.50;99.90;;;;;;4976452;28;20460;-70
2023/10/22 08:42:00;;;;;;;78.10;73.47;;;14.60;99.90;;;;;;4961035;28;20042;-70
2023/10/22 08:44:30;;;;;;;73.53;68.50;;;14.70;99.90;;;;;;4955795;29;20050;-69
2023/10/22 08:46:56;;;;;;;92.45;86.95;;;14.70;99.90;;;;;;4954746;28;20039;-70
2023/10/22 08:49:23;;;;;;;77.45;72.65;;;14.80;99.90;;;;;;4957399;28;20055;-70
2023/10/22 08:51:49;;;;;;;88.70;83.40;;;14.80;99.90;;;;;;4984541;28;20034;-70
2023/10/22 08:54:16;;;;;;;85.68;80.47;;;14.80;99.90;;;;;;4976497;28;20039;-70
2023/10/22 08:56:42;;;;;;;82.90;77.70;;;14.80;99.90;;;;;;4975844;28;20046;-70
2023/10/22 08:59:08;;;;;;;71.60;67.47;;;14.80;99.90;;;;;;4974809;28;20337;-70
2023/10/22 09:01:34;;;;;;;77.38;72.68;;;14.80;99.90;;;;;;4963445;28;20046;-70
2023/10/22 09:04:01;;;;;;;72.95;68.45;;;14.70;99.90;;;;;;4956653;29;20468;-70
2023/10/22 09:06:27;;;;;;;71.78;66.80;;;14.80;99.90;;;;;;4955266;28;20388;-71
2023/10/22 09:08:53;;;;;;;73.15;68.68;;;14.80;99.90;;;;;;4955139;28;20048;-70
2023/10/22 09:11:20;;;;;;;86.25;81.35;;;14.80;99.90;;;;;;4956294;28;20032;-70
2023/10/22 09:13:46;;;;;;;86.05;81.07;;;14.60;99.90;;;;;;4955317;29;20055;-70
2023/10/22 09:16:28;;;;;;;73.20;68.50;;;14.60;99.90;;;;;;4955096;28;20071;-70
2023/10/22 09:18:54;;;;;;;97.65;92.03;;;14.60;99.90;;;;;;4956070;28;20035;-70
2023/10/22 09:21:21;;;;;;;93.85;88.13;;;14.80;99.90;;;;;;4954658;28;20054;-70
2023/10/22 09:24:05;;;;;;;75.90;71.20;;;14.90;99.90;;;;;;4956281;28;20035;-69
2023/10/22 09:26:46;;;;;;;70.32;65.90;;;15.10;99.90;;;;;;4956058;28;20039;-70
2023/10/22 09:29:12;;;;;;;76.43;71.70;;;15.20;99.90;;;;;;4956287;28;20051;-70
2023/10/22 09:31:47;;;;;;;71.47;67.20;;;15.30;99.90;;;;;;4955239;28;20028;-70
2023/10/22 09:34:31;;;;;;;76.38;72.03;;;15.30;99.90;;;;;;4955019;29;20050;-70
2023/10/22 09:36:58;;;;;;;77.30;72.45;;;15.50;99.90;;;;;;4970992;28;20047;-70
2023/10/22 09:39:37;;;;;;;99.35;93.47;;;15.60;99.90;;;;;;4975213;28;20039;-74
2023/10/22 09:42:04;;;;;;;121.30;114.60;;;15.70;99.90;;;;;;4958710;28;20027;-75
2023/10/22 09:44:32;;;;;;;89.38;83.93;;;15.80;99.90;;;;;;4954391;29;20042;-74
2023/10/22 09:47:00;;;;;;;106.88;100.47;;;15.80;99.90;;;;;;4953894;28;20047;-75
2023/10/22 09:49:27;;;;;;;127.07;120.20;;;15.90;99.90;;;;;;4954538;29;20043;-75
2023/10/22 09:51:55;;;;;;;91.97;86.68;;;16.00;99.90;;;;;;4954266;28;20035;-75
2023/10/22 09:54:22;;;;;;;74.03;69.68;;;16.00;99.90;;;;;;4955520;28;20051;-74
2023/10/22 09:56:51;;;;;;;75.68;71.07;;;16.10;99.90;;;;;;4967895;28;20034;-75
2023/10/22 09:59:22;;;;;;;79.47;74.85;;;16.10;99.90;;;;;;4974531;28;20041;-75
2023/10/22 10:01:49;;;;;;;;;;;16.10;99.90;;;;;;4960297;28;20050;-75
2023/10/22 10:04:16;;;;;;;68.68;64.45;;;16.10;99.90;;;;;;4955712;29;19906;-75
2023/10/22 10:06:42;;;;;;;75.30;70.47;;;16.10;99.90;;;;;;4938067;29;20035;-75
2023/10/22 10:09:09;;;;;;;70.75;66.43;;;16.10;99.90;;;;;;4954083;28;20452;-75
2023/10/22 10:11:35;;;;;;;77.63;73.00;;;16.10;99.90;;;;;;4955127;28;20030;-75
2023/10/22 10:14:33;;;;;;;71.07;66.68;;;16.10;99.90;;;;;;4953862;29;20420;-75
2023/10/22 10:17:00;;;;;;;80.30;75.75;;;16.10;99.90;;;;;;4954654;28;20044;-75
2023/10/22 10:19:27;;;;;;;69.15;64.97;;;16.20;99.90;;;;;;4955233;29;20086;-76
2023/10/22 10:21:53;;;;;;;72.18;67.63;;;16.20;99.90;;;;;;4954943;28;20035;-75
2023/10/22 10:24:20;;;;;;;73.47;68.93;;;16.30;99.90;;;;;;4955166;29;20096;-75
2023/10/22 10:26:46;;;;;;;70.68;66.47;;;16.30;99.90;;;;;;4954783;28;20027;-75
2023/10/22 10:29:15;;;;;;;71.65;67.25;;;16.50;99.90;;;;;;4954500;29;20039;-75
2023/10/22 10:31:47;;;;;;;70.25;65.97;;;16.50;99.90;;;;;;4936920;28;20043;-75
2023/10/22 10:34:32;;;;;;;86.93;82.22;;;16.60;99.90;;;;;;4953376;29;20050;-75
2023/10/22 10:37:12;;;;;;;77.68;73.25;;;16.60;99.90;;;;;;4968956;28;20034;-75
2023/10/22 10:39:42;;;;;;;72.35;68.00;;;16.70;99.90;;;;;;4973084;28;20122;-75
2023/10/22 10:42:09;;;;;;;69.53;65.50;;;16.70;99.90;;;;;;4957106;28;20055;-70
2023/10/22 10:45:03;;;;;;;80.95;76.30;;;16.80;99.90;;;;;;4954721;28;20039;-70
2023/10/22 10:47:41;;;;;;;92.10;86.90;;;16.80;99.90;;;;;;4953907;28;20500;-71
2023/10/22 10:50:11;;;;;;;91.97;86.55;;;16.90;99.90;;;;;;4954801;29;20039;-71
2023/10/22 10:52:37;;;;;;;97.80;92.15;;;17.00;99.90;;;;;;4954923;29;20384;-70
2023/10/22 10:55:15;;;;;;;113.75;107.55;;;17.00;99.90;;;;;;4954858;29;20396;-70
2023/10/22 10:57:46;;;;;;;99.95;94.28;;;17.00;99.90;;;;;;4954560;28;20476;-71
2023/10/22 11:00:22;;;;;;;109.15;103.20;;;17.10;99.90;;;;;;4954039;28;20043;-70
2023/10/22 11:02:49;;;;;;;108.15;102.45;;;17.10;99.90;;;;;;4954696;29;20027;-70
2023/10/22 11:05:16;;;;;;;128.98;122.03;;;17.10;99.90;;;;;;4954619;28;20408;-71
2023/10/22 11:07:45;;;;;;;142.73;135.23;;;17.20;99.90;;;;;;4954576;29;20019;-70
2023/10/22 11:10:14;;;;;;;132.25;125.22;;;17.20;99.90;;;;;;4953730;28;20373;-70
2023/10/22 11:12:40;;;;;;;126.97;120.10;;;17.20;99.90;;;;;;4954578;28;20050;-70
2023/10/22 11:15:09;;;;;;;93.45;88.30;;;17.20;99.90;;;;;;4953989;28;20465;-70
2023/10/22 11:17:35;;;;;;;129.82;122.70;;;17.20;99.90;;;;;;4954222;28;20124;-71
2023/10/22 11:20:04;;;;;;;103.53;97.95;;;17.20;99.90;;;;;;4954581;28;20047;-70
2023/10/22 11:22:31;;;;;;;126.22;119.60;;;17.30;99.90;;;;;;4954156;28;20072;-70
2023/10/22 11:25:00;;;;;;;109.32;103.43;;;17.30;99.90;;;;;;4954520;29;20031;-70
2023/10/22 11:27:26;;;;;;;106.95;101.25;;;17.40;99.90;;;;;;4952649;28;20042;-70
2023/10/22 11:29:52;;;;;;;131.02;124.05;;;17.30;99.90;;;;;;4953378;28;20054;-70
2023/10/22 11:32:19;;;;;;;136.63;129.13;;;17.30;99.90;;;;;;4953694;28;20043;-71
2023/10/22 11:34:58;;;;;;;122.78;116.47;;;17.20;99.90;;;;;;4954185;28;20492;-71
2023/10/22 11:37:38;;;;;;;108.32;102.32;;;17.20;99.90;;;;;;4972398;28;20045;-70
2023/10/22 11:40:28;;;;;;;127.43;120.70;;;17.40;99.90;;;;;;4973412;28;20023;-70
2023/10/22 11:43:03;;;;;;;126.82;120.18;;;17.30;99.90;;;;;;4975487;28;20058;-70
2023/10/22 11:45:36;;;;;;;118.10;111.32;;;17.40;99.90;;;;;;4973925;28;20034;-70
2023/10/22 11:48:19;;;;;;;105.00;99.35;;;17.40;99.90;;;;;;4957164;29;20027;-71
2023/10/22 11:50:48;;;;;;;107.78;102.15;;;17.40;99.90;;;;;;4957428;28;20039;-70
2023/10/22 11:53:16;;;;;;;116.05;109.53;;;17.40;99.90;;;;;;4958014;29;20019;-71
2023/10/22 11:55:46;;;;;;;114.40;108.13;;;17.40;99.90;;;;;;4957042;28;20050;-70
2023/10/22 11:58:18;;;;;;;126.72;119.63;;;17.50;99.90;;;;;;4957824;29;20031;-70
2023/10/22 12:00:45;;;;;;;144.10;136.35;;;17.60;99.90;;;;;;4956908;28;20054;-75
2023/10/22 12:03:11;;;;;;;130.57;123.32;;;17.60;99.90;;;;;;4956536;29;20039;-75
2023/10/22 12:05:37;;;;;;;128.70;121.45;;;17.70;99.90;;;;;;4957605;28;20032;-75
2023/10/22 12:08:04;;;;;;;136.90;129.40;;;17.70;99.90;;;;;;4957856;28;20400;-74
2023/10/22 12:10:30;;;;;;;121.90;115.57;;;17.70;99.90;;;;;;4972314;28;20035;-74
2023/10/22 12:12:56;;;;;;;112.47;106.15;;;17.70;99.90;;;;;;4957420;29;20031;-75
2023/10/22 12:15:22;;;;;;;122.97;116.28;;;17.80;99.90;;;;;;4956802;28;20043;-75
2023/10/22 12:17:48;;;;;;;120.38;114.28;;;17.90;99.90;;;;;;4956344;29;20035;-74
2023/10/22 12:20:14;;;;;;;112.28;106.22;;;18.00;99.90;;;;;;4956711;28;20039;-74
2023/10/22 12:22:41;;;;;;;93.15;87.88;;;17.90;99.90;;;;;;4957338;29;20461;-74
2023/10/22 12:25:07;;;;;;;92.43;87.35;;;17.90;99.90;;;;;;4955856;29;20027;-75